Time;durP1;ratioP1;P1;durP2;ratioP2;P2;SDS_P1;SDS_P2;PMS_P1;PMS_P2;Temp;Humidity;BMP_temperature;BMP_pressure;BME280_temperature;BME280_humidity;BME280_pressure;Samples;Min_cycle;Max_cycle;Signal;HPM_P1;HPM_P2
2022/10/02 00:00:45;;;;;;;9.50;5.70;;;;;;;9.41;99.35;97846.48;105129;1287;23467;-74
2022/10/02 00:03:34;;;;;;;7.60;5.80;;;;;;;9.41;99.47;97851.85;104957;1287;25360;-74
2022/10/02 00:06:13;;;;;;;9.00;6.70;;;;;;;9.39;99.50;97854.06;104813;1287;137609;-74
2022/10/02 00:08:41;;;;;;;7.80;6.40;;;;;;;9.38;99.59;97850.19;104697;1287;25455;-74
2022/10/02 00:11:22;;;;;;;10.60;6.50;;;;;;;9.37;99.81;97849.81;104551;1289;137686;-73
2022/10/02 00:14:06;;;;;;;8.80;5.80;;;;;;;9.36;99.93;97859.67;104673;1289;23416;-73
2022/10/02 00:16:41;;;;;;;6.50;4.80;;;;;;;9.35;100.00;97861.17;105349;1287;138193;-74
2022/10/02 00:19:11;;;;;;;8.60;6.30;;;;;;;9.35;99.99;97860.24;104732;1289;24330;-74
2022/10/02 00:21:56;;;;;;;8.10;6.70;;;;;;;9.35;100.00;97869.16;104828;1289;25556;-73
2022/10/02 00:24:26;;;;;;;9.50;6.30;;;;;;;9.36;100.00;97868.30;104815;1289;25512;-73
2022/10/02 00:27:03;;;;;;;11.20;6.40;;;;;;;9.36;100.00;97867.05;104952;1287;22555;-73
2022/10/02 00:29:39;;;;;;;8.70;6.70;;;;;;;9.35;100.00;97872.48;104694;1290;138392;-73
2022/10/02 00:32:56;;;;;;;8.40;6.40;;;;;;;9.35;100.00;97869.11;104884;1290;22580;-73
2022/10/02 00:35:37;;;;;;;9.90;6.80;;;;;;;9.35;100.00;97869.60;104935;1289;138084;-73
2022/10/02 00:38:43;;;;;;;10.20;7.60;;;;;;;9.36;100.00;97874.83;104764;1290;25278;-73
2022/10/02 00:41:19;;;;;;;10.90;7.70;;;;;;;9.36;100.00;97881.13;104710;1289;138790;-73
2022/10/02 00:44:24;;;;;;;10.50;7.60;;;;;;;9.36;100.00;97877.94;104776;1289;25254;-73
2022/10/02 00:47:21;;;;;;;9.60;7.50;;;;;;;9.37;100.00;97884.30;104414;1289;138041;-73
2022/10/02 00:50:32;;;;;;;10.90;7.80;;;;;;;9.39;100.00;97886.23;104543;1289;30300;-73
2022/10/02 00:53:06;;;;;;;11.90;9.10;;;;;;;9.40;100.00;97885.32;104629;1289;138084;-73
2022/10/02 00:56:03;;;;;;;12.10;8.40;;;;;;;9.42;100.00;97886.64;104862;1289;22874;-73
2022/10/02 00:59:05;;;;;;;11.80;7.80;;;;;;;9.43;100.00;97884.40;104579;1289;138165;-73
2022/10/02 01:01:40;;;;;;;14.90;8.20;;;;;;;9.45;100.00;97891.36;103740;1295;25336;-75
2022/10/02 01:04:32;;;;;;;12.30;7.30;;;;;;;9.45;100.00;97894.73;103577;1295;139216;-74
2022/10/02 01:07:00;;;;;;;11.00;7.60;;;;;;;9.46;100.00;97902.80;103593;1295;24454;-74
2022/10/02 01:09:27;;;;;;;12.70;8.80;;;;;;;9.48;100.00;97905.38;103759;1294;22704;-74
2022/10/02 01:11:54;;;;;;;12.10;8.60;;;;;;;9.50;100.00;97906.29;103679;1295;138240;-74
2022/10/02 01:14:34;;;;;;;11.20;6.90;;;;;;;9.52;100.00;97903.15;103807;1293;22643;-74
2022/10/02 01:17:02;;;;;;;8.70;6.90;;;;;;;9.54;100.00;97905.02;103710;1293;138022;-73
2022/10/02 01:19:38;;;;;;;8.50;6.90;;;;;;;9.55;100.00;97904.77;103700;1296;25545;-73
2022/10/02 01:22:16;;;;;;;8.00;7.10;;;;;;;9.56;100.00;97908.36;103632;1295;138286;-73
2022/10/02 01:24:58;;;;;;;9.60;7.40;;;;;;;9.57;100.00;97913.09;103644;1295;22564;-73
2022/10/02 01:27:26;;;;;;;11.30;6.80;;;;;;;9.58;100.00;97913.55;103682;1295;25400;-73
2022/10/02 01:29:59;;;;;;;11.40;8.40;;;;;;;9.58;100.00;97911.88;103718;1294;138571;-73
2022/10/02 01:32:28;;;;;;;7.50;6.00;;;;;;;9.60;100.00;97916.36;103737;1294;22619;-73
2022/10/02 01:34:56;;;;;;;7.70;6.60;;;;;;;9.58;100.00;97913.83;103650;1293;138068;-73
2022/10/02 01:37:27;;;;;;;9.70;6.00;;;;;;;9.60;100.00;97918.52;103836;1294;24289;-73
2022/10/02 01:40:00;;;;;;;6.70;5.60;;;;;;;9.60;100.00;97923.58;104698;1289;138193;-73
2022/10/02 01:42:28;;;;;;;6.90;5.60;;;;;;;9.58;100.00;97927.58;105805;1277;22570;-73
2022/10/02 01:44:55;;;;;;;6.70;5.60;;;;;;;9.60;100.00;97930.38;105874;1277;22541;-74
2022/10/02 01:47:52;;;;;;;5.90;5.20;;;;;;;9.61;100.00;97935.13;105740;1277;137766;-74
2022/10/02 01:50:57;;;;;;;7.20;5.50;;;;;;;9.61;100.00;97933.38;105538;1277;22534;-74
2022/10/02 01:54:08;;;;;;;8.10;5.90;;;;;;;9.61;100.00;97935.14;105477;1278;137867;-74
2022/10/02 01:56:42;;;;;;;5.90;5.30;;;;;;;9.61;100.00;97940.41;104894;1286;24726;-74
2022/10/02 01:59:20;;;;;;;8.60;5.60;;;;;;;9.62;100.00;97943.46;104680;1285;138268;-74
2022/10/02 02:02:24;;;;;;;6.80;5.60;;;;;;;9.63;100.00;97943.48;105160;1283;24402;-74
2022/10/02 02:05:25;;;;;;;5.70;5.10;;;;;;;9.64;100.00;97944.24;104930;1283;139312;-74
2022/10/02 02:08:02;;;;;;;5.50;4.60;;;;;;;9.65;100.00;97947.95;105115;1283;24281;-74
2022/10/02 02:10:38;;;;;;;5.80;5.10;;;;;;;9.65;100.00;97946.42;104950;1283;137882;-74
2022/10/02 02:13:34;;;;;;;7.90;5.10;;;;;;;9.66;100.00;97947.31;104928;1284;25362;-73
2022/10/02 02:16:09;;;;;;;7.10;5.40;;;;;;;9.66;100.00;97948.20;104813;1284;138778;-74
2022/10/02 02:18:45;;;;;;;7.00;5.00;;;;;;;9.67;100.00;97951.36;104932;1284;22747;-73
2022/10/02 02:21:21;;;;;;;8.20;5.70;;;;;;;9.67;100.00;97948.85;105061;1283;24494;-74
2022/10/02 02:23:49;;;;;;;6.60;5.40;;;;;;;9.68;100.00;97952.67;104968;1283;137958;-74
2022/10/02 02:26:18;;;;;;;6.10;5.50;;;;;;;9.68;100.00;97954.95;105024;1283;26533;-74
2022/10/02 02:28:53;;;;;;;7.60;5.30;;;;;;;9.69;100.00;97955.13;105034;1283;137924;-74
2022/10/02 02:31:26;;;;;;;6.70;5.00;;;;;;;9.71;100.00;97955.53;105218;1280;22776;-73
2022/10/02 02:34:01;;;;;;;6.90;5.10;;;;;;;9.70;100.00;97958.30;105462;1280;138148;-73
2022/10/02 02:36:45;;;;;;;5.90;5.20;;;;;;;9.72;100.00;97960.48;105444;1280;22707;-73
2022/10/02 02:39:17;;;;;;;5.90;4.20;;;;;;;9.72;100.00;97958.59;105549;1280;22538;-73
2022/10/02 02:41:50;;;;;;;7.20;5.50;;;;;;;9.72;100.00;97960.89;105662;1277;138474;-73
2022/10/02 02:44:32;;;;;;;5.50;4.20;;;;;;;9.72;100.00;97962.02;105885;1277;22545;-73
2022/10/02 02:47:11;;;;;;;6.90;4.40;;;;;;;9.72;100.00;97960.02;105684;1277;138155;-73
2022/10/02 02:49:58;;;;;;;8.00;5.10;;;;;;;9.71;100.00;97965.27;105749;1279;22760;-73
2022/10/02 02:52:57;;;;;;;8.60;5.30;;;;;;;9.69;100.00;97967.03;105894;1277;137971;-73
2022/10/02 02:55:38;;;;;;;6.00;4.60;;;;;;;9.68;100.00;97971.98;105269;1283;22544;-73
2022/10/02 02:58:19;;;;;;;6.00;5.50;;;;;;;9.67;100.00;97971.75;105172;1283;137983;-73
2022/10/02 03:00:46;;;;;;;5.40;4.80;;;;;;;9.68;100.00;97974.26;105218;1283;24248;-73
2022/10/02 03:03:13;;;;;;;6.80;4.80;;;;;;;9.68;100.00;97974.64;105147;1283;22732;-74
2022/10/02 03:05:45;;;;;;;8.00;4.70;;;;;;;9.67;100.00;97977.77;105103;1283;138980;-73
2022/10/02 03:08:35;;;;;;;6.90;5.60;;;;;;;9.66;100.00;97976.47;105232;1283;23975;-73
2022/10/02 03:11:14;;;;;;;6.20;5.10;;;;;;;9.66;100.00;97982.22;105177;1283;137790;-73
2022/10/02 03:13:53;;;;;;;;;;;;;;;9.63;100.00;97978.06;105219;1283;22761;-73
2022/10/02 03:16:20;;;;;;;7.10;4.80;;;;;;;9.62;100.00;97978.30;105119;1282;125154;-73
2022/10/02 03:19:37;;;;;;;6.00;5.00;;;;;;;9.60;100.00;97983.39;105175;1283;23938;-74
2022/10/02 03:22:19;;;;;;;7.10;5.00;;;;;;;9.58;100.00;97979.39;105409;1283;137959;-74
2022/10/02 03:24:48;;;;;;;5.70;4.70;;;;;;;9.57;100.00;97983.02;105205;1283;24249;-73
2022/10/02 03:27:36;;;;;;;7.00;5.20;;;;;;;9.56;100.00;97981.82;105194;1283;25448;-73
2022/10/02 03:30:08;;;;;;;7.60;5.20;;;;;;;9.57;100.00;97982.96;105123;1283;138168;-73
2022/10/02 03:32:38;;;;;;;6.30;4.80;;;;;;;9.58;100.00;97982.06;105600;1277;25490;-73
2022/10/02 03:35:10;;;;;;;6.20;4.70;;;;;;;9.60;100.00;97986.27;105757;1277;138430;-73
2022/10/02 03:37:43;;;;;;;6.40;5.20;;;;;;;9.61;100.00;97988.19;105699;1277;25372;-73
2022/10/02 03:40:11;;;;;;;8.20;4.90;;;;;;;9.63;100.00;97989.36;105608;1277;138205;-73
2022/10/02 03:42:39;;;;;;;5.60;5.00;;;;;;;9.64;100.00;97991.49;106027;1277;22616;-73
2022/10/02 03:45:06;;;;;;;5.70;4.60;;;;;;;9.67;100.00;97995.83;105796;1277;25271;-73
2022/10/02 03:47:34;;;;;;;6.70;4.80;;;;;;;9.68;100.00;98003.95;105560;1277;138015;-73
2022/10/02 03:50:02;;;;;;;7.30;5.30;;;;;;;9.70;100.00;98006.04;105791;1277;25264;-73
2022/10/02 03:52:30;;;;;;;5.60;4.80;;;;;;;9.71;99.99;98006.77;105737;1277;138316;-73
2022/10/02 03:55:02;;;;;;;6.10;4.50;;;;;;;9.72;99.99;98002.06;105728;1278;22552;-73
2022/10/02 03:57:32;;;;;;;5.00;4.50;;;;;;;9.72;99.91;98008.75;105700;1277;22704;-73
2022/10/02 04:00:18;;;;;;;6.80;5.20;;;;;;;9.72;99.88;98015.42;105612;1278;138299;-73
2022/10/02 04:03:06;;;;;;;4.90;4.20;;;;;;;9.73;99.74;98018.85;105667;1278;24394;-75
2022/10/02 04:05:43;;;;;;;5.20;4.30;;;;;;;9.72;99.56;98023.25;105593;1278;137723;-73
2022/10/02 04:08:37;;;;;;;5.90;5.30;;;;;;;9.72;99.58;98021.90;105774;1277;24506;-73
2022/10/02 04:11:18;;;;;;;9.90;5.50;;;;;;;9.72;99.40;98029.65;105854;1278;137837;-72
2022/10/02 04:14:13;;;;;;;5.30;4.40;;;;;;;9.72;99.48;98030.59;105747;1278;22541;-72
2022/10/02 04:16:52;;;;;;;5.80;4.90;;;;;;;9.72;99.52;98037.06;105628;1277;139211;-72
2022/10/02 04:19:41;;;;;;;7.10;4.60;;;;;;;9.72;99.45;98038.11;105606;1277;22559;-73
2022/10/02 04:22:30;;;;;;;4.20;3.80;;;;;;;9.73;99.57;98046.11;105621;1278;138568;-72
2022/10/02 04:25:06;;;;;;;5.10;4.50;;;;;;;9.73;99.62;98046.27;105806;1277;25384;-72
2022/10/02 04:27:37;;;;;;;6.60;4.90;;;;;;;9.74;99.38;98046.29;105862;1278;23257;-73
2022/10/02 04:30:15;;;;;;;5.20;4.20;;;;;;;9.74;99.67;98050.65;105442;1278;138388;-73
2022/10/02 04:32:43;;;;;;;6.70;4.60;;;;;;;9.76;99.66;98053.71;105609;1279;22550;-73
2022/10/02 04:35:14;;;;;;;5.00;4.00;;;;;;;9.75;99.59;98050.76;105602;1278;137884;-73
2022/10/02 04:37:52;;;;;;;6.20;4.20;;;;;;;9.75;99.54;98053.54;105670;1277;25200;-73
2022/10/02 04:40:49;;;;;;;5.30;4.50;;;;;;;9.75;99.62;98060.66;105594;1277;138086;-73
2022/10/02 04:43:33;;;;;;;4.70;4.10;;;;;;;9.75;99.56;98061.53;105708;1277;24526;-73
2022/10/02 04:46:09;;;;;;;5.40;4.20;;;;;;;9.76;99.72;98071.01;105852;1277;138088;-73
2022/10/02 04:49:06;;;;;;;5.50;4.70;;;;;;;9.76;99.53;98069.16;105828;1277;22535;-73
2022/10/02 04:51:51;;;;;;;6.10;4.10;;;;;;;9.76;99.54;98078.50;105905;1277;22594;-76
2022/10/02 04:54:39;;;;;;;5.50;4.70;;;;;;;9.76;99.57;98082.47;105962;1276;24322;-76
2022/10/02 04:57:17;;;;;;;4.90;4.30;;;;;;;9.76;99.60;98088.90;105677;1277;23361;-74
2022/10/02 05:00:02;;;;;;;6.60;4.10;;;;;;;9.77;99.53;98092.77;105815;1277;137896;-73
2022/10/02 05:02:48;;;;;;;4.50;4.00;;;;;;;9.79;99.63;98099.43;105998;1277;22584;-73
2022/10/02 05:05:29;;;;;;;6.40;4.70;;;;;;;9.80;99.27;98095.74;105536;1277;137942;-73
2022/10/02 05:07:55;;;;;;;5.70;4.60;;;;;;;9.82;99.23;98099.76;105787;1278;22663;-75
2022/10/02 05:11:00;;;;;;;6.30;4.50;;;;;;;9.84;99.10;98100.22;105607;1278;138426;-75
2022/10/02 05:13:56;;;;;;;4.50;4.10;;;;;;;9.86;98.95;98106.06;105889;1278;22586;-75
2022/10/02 05:16:35;;;;;;;6.20;5.20;;;;;;;9.87;98.82;98103.59;105695;1277;138075;-76
2022/10/02 05:19:28;;;;;;;6.80;5.00;;;;;;;9.89;98.54;98111.45;105668;1278;22566;-75
2022/10/02 05:22:07;;;;;;;7.60;5.90;;;;;;;9.91;98.42;98111.70;105591;1278;138238;-75
2022/10/02 05:24:45;;;;;;;5.40;4.20;;;;;;;9.94;98.49;98116.31;105701;1277;22564;-75
2022/10/02 05:27:21;;;;;;;4.90;4.40;;;;;;;9.96;98.15;98119.39;105671;1277;24318;-75
2022/10/02 05:29:54;;;;;;;6.00;4.60;;;;;;;9.98;98.22;98116.38;105540;1278;138875;-75
2022/10/02 05:32:33;;;;;;;7.10;4.30;;;;;;;10.00;98.08;98119.00;105676;1278;25492;-74
2022/10/02 05:35:06;;;;;;;;;;;;;;;10.02;97.65;98125.52;105764;1277;138034;-73
2022/10/02 05:37:44;;;;;;;5.50;4.20;;;;;;;10.03;97.70;98123.41;105797;1277;22538;-73
2022/10/02 05:40:42;;;;;;;8.50;4.80;;;;;;;10.04;97.58;98124.85;105720;1277;138089;-73
2022/10/02 05:43:32;;;;;;;5.70;4.80;;;;;;;10.06;97.73;98135.04;106070;1277;25361;-73
2022/10/02 05:46:05;;;;;;;6.50;4.50;;;;;;;10.10;97.54;98139.00;105921;1277;138172;-73
2022/10/02 05:48:45;;;;;;;6.50;4.30;;;;;;;10.14;97.59;98143.05;105870;1277;22536;-75
2022/10/02 05:51:22;;;;;;;5.40;4.10;;;;;;;10.18;97.36;98147.61;105902;1277;25509;-73
2022/10/02 05:54:17;;;;;;;4.80;3.90;;;;;;;10.21;97.30;98150.39;105856;1277;138227;-76
2022/10/02 05:56:53;;;;;;;4.70;4.30;;;;;;;10.24;97.23;98148.63;105862;1277;30171;-74
2022/10/02 05:59:49;;;;;;;5.60;4.20;;;;;;;10.28;97.08;98152.09;105564;1278;137965;-73
2022/10/02 06:02:51;;;;;;;4.30;3.90;;;;;;;10.31;97.03;98158.27;105122;1284;24397;-72
2022/10/02 06:05:29;;;;;;;4.90;3.70;;;;;;;10.33;96.64;98162.66;105146;1283;137917;-73
2022/10/02 06:08:01;;;;;;;4.30;3.90;;;;;;;10.34;96.42;98166.29;105362;1284;23930;-73
2022/10/02 06:10:34;;;;;;;8.90;4.00;;;;;;;10.35;96.10;98168.42;105322;1284;138522;-73
2022/10/02 06:13:10;;;;;;;7.40;3.70;;;;;;;10.38;96.19;98173.67;105417;1284;22609;-74
2022/10/02 06:16:07;;;;;;;5.50;4.00;;;;;;;10.41;96.01;98176.45;105277;1284;25319;-73
2022/10/02 06:18:37;;;;;;;6.00;3.60;;;;;;;10.44;96.03;98178.39;105446;1283;22611;-73
2022/10/02 06:21:13;;;;;;;8.00;4.00;;;;;;;10.51;95.94;98177.72;105296;1284;23574;-73
2022/10/02 06:23:45;;;;;;;5.50;3.90;;;;;;;10.56;95.89;98175.89;105144;1284;138056;-73
2022/10/02 06:26:25;;;;;;;4.90;3.20;;;;;;;10.62;95.65;98179.82;105304;1282;25385;-73
2022/10/02 06:28:55;;;;;;;;;;;;;;;10.65;95.97;98179.60;104884;1284;138087;-72
2022/10/02 06:31:45;;;;;;;5.10;3.70;;;;;;;10.65;95.21;98188.85;105310;1284;24475;-72
2022/10/02 06:34:14;;;;;;;4.20;3.30;;;;;;;10.66;95.15;98192.63;105264;1284;138807;-72
2022/10/02 06:36:53;;;;;;;6.90;3.30;;;;;;;10.70;95.03;98194.80;105323;1284;25637;-72
2022/10/02 06:39:57;;;;;;;7.40;3.20;;;;;;;10.73;94.88;98197.30;105492;1278;25406;-72
2022/10/02 06:42:48;;;;;;;9.70;4.00;;;;;;;10.75;94.38;98200.10;105830;1278;24383;-73
2022/10/02 06:45:24;;;;;;;5.20;3.40;;;;;;;10.77;94.29;98198.27;105777;1278;25435;-72
2022/10/02 06:48:04;;;;;;;6.00;3.70;;;;;;;10.78;93.93;98202.64;105477;1277;138509;-72
2022/10/02 06:50:44;;;;;;;4.50;3.20;;;;;;;10.82;93.78;98202.85;105708;1278;25412;-73
2022/10/02 06:53:17;;;;;;;5.50;2.90;;;;;;;10.86;93.69;98208.79;105734;1277;138053;-73
2022/10/02 06:55:54;;;;;;;8.20;3.80;;;;;;;10.90;93.27;98214.50;105627;1278;23094;-73
2022/10/02 06:58:59;;;;;;;6.40;3.40;;;;;;;10.95;93.58;98212.77;105650;1277;138222;-72
2022/10/02 07:01:32;;;;;;;4.10;3.00;;;;;;;11.02;93.13;98219.41;106606;1277;24810;-72
2022/10/02 07:03:59;;;;;;;5.20;2.90;;;;;;;11.07;92.74;98216.30;105692;1278;138431;-72
2022/10/02 07:06:56;;;;;;;6.10;3.10;;;;;;;11.12;92.58;98217.66;105705;1278;22541;-73
2022/10/02 07:09:44;;;;;;;6.60;2.90;;;;;;;11.17;92.35;98218.16;106040;1277;24332;-72
2022/10/02 07:12:39;;;;;;;4.20;2.50;;;;;;;11.22;92.45;98224.80;105809;1278;137814;-72
2022/10/02 07:15:30;;;;;;;4.00;2.40;;;;;;;11.26;91.41;98224.33;105600;1280;24399;-72
2022/10/02 07:18:14;;;;;;;5.20;2.80;;;;;;;11.33;91.58;98228.20;105689;1277;138740;-72
2022/10/02 07:21:05;;;;;;;5.90;2.50;;;;;;;11.37;91.13;98228.30;105882;1277;25265;-72
2022/10/02 07:23:45;;;;;;;6.60;2.60;;;;;;;11.42;90.69;98234.52;105923;1277;137919;-72
2022/10/02 07:26:37;;;;;;;3.80;2.40;;;;;;;11.42;90.52;98232.58;105776;1278;25386;-72
2022/10/02 07:29:26;;;;;;;4.00;2.60;;;;;;;11.43;90.65;98233.60;105456;1278;138373;-72
2022/10/02 07:32:46;;;;;;;7.20;2.50;;;;;;;11.48;90.32;98230.05;105621;1277;24341;-72
2022/10/02 07:35:33;;;;;;;5.60;3.30;;;;;;;11.53;89.74;98232.24;105407;1278;138539;-71
2022/10/02 07:38:41;;;;;;;5.60;1.90;;;;;;;11.56;90.14;98240.20;105640;1278;22569;-72
2022/10/02 07:41:21;;;;;;;5.20;2.40;;;;;;;11.60;89.06;98237.27;105907;1277;138219;-75
2022/10/02 07:44:04;;;;;;;4.50;2.30;;;;;;;11.62;88.88;98235.67;105768;1277;22579;-72
2022/10/02 07:46:56;;;;;;;4.50;3.20;;;;;;;11.67;88.14;98233.47;105654;1277;138242;-70
2022/10/02 07:49:54;;;;;;;4.50;2.50;;;;;;;11.75;87.91;98230.66;105641;1277;22770;-71
2022/10/02 07:52:33;;;;;;;5.70;2.50;;;;;;;11.88;88.11;98229.70;105663;1278;139096;-69
2022/10/02 07:55:18;;;;;;;4.80;2.20;;;;;;;12.03;87.97;98219.59;105818;1277;24222;-72
2022/10/02 07:57:53;;;;;;;7.10;2.30;;;;;;;12.17;87.85;98226.58;105605;1277;23954;-73
2022/10/02 08:00:24;;;;;;;6.40;2.80;;;;;;;12.32;86.72;98226.42;105500;1277;25470;-72
2022/10/02 08:02:58;;;;;;;6.00;2.50;;;;;;;12.46;87.14;98225.42;105540;1277;22540;-70
2022/10/02 08:05:46;;;;;;;4.90;2.80;;;;;;;12.56;85.77;98219.09;105423;1277;138142;-72
2022/10/02 08:08:19;;;;;;;4.90;2.40;;;;;;;12.60;84.59;98221.27;105606;1277;24272;-72
2022/10/02 08:10:50;;;;;;;5.20;2.20;;;;;;;12.65;84.44;98219.09;105607;1277;138266;-72
2022/10/02 08:13:29;;;;;;;6.40;2.30;;;;;;;12.70;83.80;98219.67;105804;1277;22535;-73
2022/10/02 08:15:55;;;;;;;4.30;2.60;;;;;;;12.72;83.08;98220.23;105716;1277;138580;-73
2022/10/02 08:18:43;;;;;;;4.40;2.20;;;;;;;12.69;83.13;98221.52;105764;1277;22677;-71
2022/10/02 08:21:19;;;;;;;8.60;2.30;;;;;;;12.65;82.70;98222.31;105837;1277;22685;-72
2022/10/02 08:24:03;;;;;;;4.60;1.60;;;;;;;12.62;83.52;98226.55;105709;1277;138280;-71
2022/10/02 08:26:35;;;;;;;4.20;2.10;;;;;;;12.61;83.19;98228.90;105728;1277;24090;-72
2022/10/02 08:29:21;;;;;;;6.20;2.10;;;;;;;12.61;82.48;98225.79;105577;1278;138568;-70
2022/10/02 08:31:53;;;;;;;4.60;1.90;;;;;;;12.63;82.62;98221.92;105619;1277;24324;-73
2022/10/02 08:34:25;;;;;;;3.40;1.70;;;;;;;12.62;81.41;98219.67;105589;1278;138370;-73
2022/10/02 08:37:54;;;;;;;4.70;1.80;;;;;;;12.61;81.87;98220.92;105539;1278;24240;-73
2022/10/02 08:40:48;;;;;;;3.20;1.80;;;;;;;12.61;81.10;98223.21;105280;1283;138315;-72
2022/10/02 08:43:50;;;;;;;6.30;2.00;;;;;;;12.57;80.17;98217.35;105755;1282;25269;-71
2022/10/02 08:46:35;;;;;;;4.30;1.80;;;;;;;12.51;80.74;98215.39;105151;1282;138091;-70
2022/10/02 08:49:05;;;;;;;4.20;2.00;;;;;;;12.47;81.40;98213.89;105257;1281;24406;-70
2022/10/02 08:52:26;;;;;;;6.00;2.10;;;;;;;12.46;81.06;98213.89;105358;1281;23002;-71
2022/10/02 08:56:12;;;;;;;3.30;1.70;;;;;;;12.49;80.52;98213.15;104408;1291;22560;-70
2022/10/02 08:58:57;;;;;;;4.90;1.90;;;;;;;12.64;80.60;98209.52;103887;1295;138483;-74
2022/10/02 09:01:48;;;;;;;4.70;1.80;;;;;;;12.81;79.62;98214.53;103739;1295;31176;-72
2022/10/02 09:04:27;;;;;;;7.20;2.40;;;;;;;12.91;78.65;98210.54;103516;1298;138705;-72
2022/10/02 09:07:22;;;;;;;7.80;2.20;;;;;;;12.97;79.25;98208.54;103674;1295;22798;-71
2022/10/02 09:10:26;;;;;;;6.50;3.10;;;;;;;13.15;79.31;98207.84;103641;1295;23970;-72
2022/10/02 09:13:28;;;;;;;3.90;1.80;;;;;;;13.40;77.66;98196.40;103611;1295;25669;-71
2022/10/02 09:16:08;;;;;;;5.30;1.80;;;;;;;13.50;76.55;98197.41;104125;1290;138613;-70
2022/10/02 09:19:06;;;;;;;2.70;1.60;;;;;;;13.50;76.28;98193.20;104402;1290;25440;-72
2022/10/02 09:21:58;;;;;;;5.30;1.50;;;;;;;13.54;75.68;98200.10;104477;1288;22677;-73
2022/10/02 09:25:05;;;;;;;5.80;2.10;;;;;;;13.56;75.30;98207.00;104518;1289;25513;-73
2022/10/02 09:27:50;;;;;;;2.40;1.30;;;;;;;13.46;74.60;98199.20;104580;1289;26060;-71
2022/10/02 09:30:46;;;;;;;4.50;2.10;;;;;;;13.35;75.00;98202.02;104643;1289;22744;-72
2022/10/02 09:33:38;;;;;;;3.20;1.70;;;;;;;13.23;75.04;98211.21;105577;1284;23393;-71
2022/10/02 09:36:44;;;;;;;4.00;1.40;;;;;;;13.14;73.92;98209.16;105489;1277;138055;-70
2022/10/02 09:39:40;;;;;;;4.10;1.80;;;;;;;13.02;73.95;98207.14;104945;1284;22547;-70
2022/10/02 09:42:45;;;;;;;9.60;1.70;;;;;;;12.92;74.41;98205.23;104800;1283;138009;-70
2022/10/02 09:45:31;;;;;;;6.30;1.90;;;;;;;12.84;74.79;98213.77;105160;1284;22575;-70
2022/10/02 09:48:30;;;;;;;5.10;1.50;;;;;;;12.82;75.77;98210.48;105043;1284;138078;-70
2022/10/02 09:51:30;;;;;;;4.40;1.50;;;;;;;12.82;75.28;98202.19;104436;1290;25552;-70
2022/10/02 09:54:02;;;;;;;5.00;1.80;;;;;;;12.85;74.96;98185.64;104354;1290;138073;-70
2022/10/02 09:57:16;;;;;;;3.80;1.40;;;;;;;12.92;74.45;98186.33;104323;1291;25257;-70
2022/10/02 10:00:15;;;;;;;5.50;1.70;;;;;;;13.01;75.09;98185.21;103675;1297;139598;-70
2022/10/02 10:02:52;;;;;;;3.90;1.80;;;;;;;13.19;74.98;98175.33;103981;1297;30305;-70
2022/10/02 10:05:33;;;;;;;3.30;1.60;;;;;;;13.33;74.63;98176.20;103607;1297;138780;-70
2022/10/02 10:08:41;;;;;;;3.50;1.80;;;;;;;13.53;75.46;98175.36;103888;1297;22560;-70
2022/10/02 10:11:22;;;;;;;4.70;1.80;;;;;;;13.81;75.00;98177.64;103481;1297;138031;-70
2022/10/02 10:13:57;;;;;;;5.60;2.10;;;;;;;14.12;74.14;98167.33;103663;1297;25312;-70
2022/10/02 10:16:50;;;;;;;4.10;1.40;;;;;;;14.41;73.25;98173.11;104351;1290;138519;-70
2022/10/02 10:19:48;;;;;;;3.80;1.40;;;;;;;14.72;72.65;98164.61;104315;1289;22566;-69
2022/10/02 10:22:44;;;;;;;4.20;1.60;;;;;;;14.87;70.09;98167.14;104441;1289;138849;-70
2022/10/02 10:25:29;;;;;;;3.80;1.20;;;;;;;15.06;68.88;98166.12;104227;1290;22868;-72
2022/10/02 10:28:16;;;;;;;7.90;1.80;;;;;;;15.19;68.81;98157.23;104516;1285;139260;-72
2022/10/02 10:31:02;;;;;;;3.90;1.40;;;;;;;15.26;66.48;98168.65;104778;1286;23224;-72
2022/10/02 10:33:48;;;;;;;5.20;1.50;;;;;;;15.11;66.95;98164.41;105138;1277;31860;-72
2022/10/02 10:39:51;;;;;;;5.50;1.60;;;;;;;14.72;67.59;98160.29;105552;1277;25257;-72
2022/10/02 10:42:58;;;;;;;3.80;1.20;;;;;;;14.66;68.20;98156.26;105733;1277;22563;-72
2022/10/02 10:45:50;;;;;;;3.60;1.60;;;;;;;14.62;67.98;98162.74;105604;1275;22785;-72
2022/10/02 10:48:23;;;;;;;3.20;1.50;;;;;;;14.51;66.82;98161.86;105573;1277;22559;-72
2022/10/02 10:51:02;;;;;;;5.00;1.30;;;;;;;14.41;66.15;98162.04;105724;1277;25382;-72
2022/10/02 10:53:41;;;;;;;4.60;1.40;;;;;;;14.31;66.37;98168.19;105592;1277;141786;-72
2022/10/02 10:56:24;;;;;;;5.00;1.50;;;;;;;14.25;66.65;98167.21;106248;1277;22698;-72
2022/10/02 10:59:29;;;;;;;4.50;1.50;;;;;;;14.22;67.00;98163.39;105931;1277;137901;-72
2022/10/02 11:02:02;;;;;;;5.90;1.40;;;;;;;14.23;66.67;98157.85;106635;1277;25444;-72
2022/10/02 11:04:56;;;;;;;5.40;1.40;;;;;;;14.32;67.16;98159.92;105654;1277;138137;-72
2022/10/02 11:07:26;;;;;;;7.10;1.90;;;;;;;14.54;66.86;98148.54;105349;1283;24348;-72
2022/10/02 11:10:11;;;;;;;6.00;1.90;;;;;;;14.79;67.97;98147.64;104909;1283;138683;-71
2022/10/02 11:12:55;;;;;;;4.00;1.30;;;;;;;14.97;65.35;98150.64;105190;1281;293510;-72
2022/10/02 11:15:34;;;;;;;5.10;1.30;;;;;;;15.00;64.91;98150.13;105338;1281;25377;-72
2022/10/02 11:18:39;;;;;;;3.80;1.20;;;;;;;14.95;62.95;98143.41;105199;1281;139067;-72
2022/10/02 11:21:24;;;;;;;6.60;1.20;;;;;;;14.92;64.45;98144.25;105832;1282;22557;-70
2022/10/02 11:24:29;;;;;;;4.20;1.10;;;;;;;14.87;63.74;98148.05;105234;1283;138361;-70
2022/10/02 11:27:15;;;;;;;5.10;1.20;;;;;;;14.84;64.73;98146.42;105410;1281;23931;-69
2022/10/02 11:30:00;;;;;;;3.30;1.00;;;;;;;14.86;65.00;98145.65;105444;1281;138367;-71
2022/10/02 11:32:58;;;;;;;5.70;1.00;;;;;;;14.90;64.59;98148.20;105239;1281;23306;-71
2022/10/02 11:36:03;;;;;;;2.50;1.00;;;;;;;14.95;64.41;98148.30;105252;1281;138075;-72
2022/10/02 11:39:04;;;;;;;6.00;1.80;;;;;;;15.01;64.20;98147.12;104684;1287;25438;-71
2022/10/02 11:41:58;;;;;;;5.30;1.40;;;;;;;15.06;64.43;98144.48;104626;1287;138032;-70
2022/10/02 11:45:01;;;;;;;6.10;1.10;;;;;;;15.09;64.26;98140.94;104742;1283;24878;-70
2022/10/02 11:47:40;;;;;;;4.40;1.20;;;;;;;15.11;64.20;98141.53;104945;1283;138573;-70
2022/10/02 11:50:40;;;;;;;4.70;1.30;;;;;;;15.06;64.58;98144.19;105029;1283;24264;-70
2022/10/02 11:53:51;;;;;;;6.50;1.40;;;;;;;15.03;64.44;98138.39;104986;1283;140457;-70
2022/10/02 11:56:37;;;;;;;4.90;1.00;;;;;;;15.04;64.75;98134.81;105137;1285;29274;-69
2022/10/02 11:59:32;;;;;;;4.50;1.60;;;;;;;15.12;64.43;98121.98;104892;1285;138231;-70
2022/10/02 12:02:31;;;;;;;5.80;1.20;;;;;;;15.29;64.45;98122.60;105047;1285;23410;-71
2022/10/02 12:05:20;;;;;;;;;;;;;;;15.39;63.66;98121.99;104970;1283;138010;-70
2022/10/02 12:07:58;;;;;;;2.50;1.00;;;;;;;15.34;63.95;98123.45;105036;1283;25265;-70
2022/10/02 12:10:52;;;;;;;4.50;1.20;;;;;;;15.21;61.45;98112.89;105028;1283;139141;-70
2022/10/02 12:13:35;;;;;;;3.50;1.20;;;;;;;15.04;62.34;98117.38;105156;1283;22563;-70
2022/10/02 12:16:18;;;;;;;7.60;2.00;;;;;;;14.90;62.95;98126.66;105377;1277;138481;-70
2022/10/02 12:19:01;;;;;;;4.10;1.30;;;;;;;14.78;65.25;98139.48;105795;1277;22547;-70
2022/10/02 12:27:50;;;;;;;2.20;0.90;;;;;;;14.02;69.89;98126.95;105945;1277;22687;-70
2022/10/02 12:30:27;;;;;;;3.60;1.30;;;;;;;13.93;71.01;98121.42;106036;1277;25270;-71
2022/10/02 12:33:07;;;;;;;3.50;0.90;;;;;;;14.01;71.73;98119.70;105915;1276;22847;-70
2022/10/02 12:35:46;;;;;;;3.00;1.00;;;;;;;14.14;71.87;98117.13;105998;1277;138092;-70
2022/10/02 12:38:41;;;;;;;3.00;0.90;;;;;;;14.30;71.58;98108.81;105811;1277;23941;-71
2022/10/02 12:41:41;;;;;;;4.80;1.10;;;;;;;14.45;71.27;98107.19;105802;1277;137940;-70
2022/10/02 12:44:32;;;;;;;2.50;1.10;;;;;;;14.65;70.68;98099.25;105839;1277;24398;-70
2022/10/02 12:47:28;;;;;;;6.60;1.10;;;;;;;14.75;69.87;98090.32;105686;1277;138560;-70
2022/10/02 12:50:18;;;;;;;3.40;1.30;;;;;;;14.88;69.03;98082.86;105787;1277;24254;-70
2022/10/02 12:53:28;;;;;;;2.40;1.10;;;;;;;15.01;69.56;98083.50;105632;1277;139908;-71